Marshfield, Missouri
Current Conditions -  °F | °C
As of 3:52 AM on Friday 24 Oct 2014 (Local Time) from KSGF Reporting Station
Haze Haze  
Wind Chill: 51°   Ceiling: Unl
Heat Index: 51°   Visibility: 6mi
Dew Point: 50°   Wind: 7mph
Humidity: 96%   Direction: 200°SSW
Pressure: 30.1"   Gusts: NA
Location:  37.34°N, 92.91°W
Report Text: KSGF 240852Z 20006KT 6SM BR CLR 11/10 A3010 RMK AO2 SLP191 T01060100 58006
Loading
Personal Weather Stations






























Interactive Weather Map New forecast layout! Learn more

10-Day Weather Forecast

Advertisements
Track Severe Weather on mobile